• Join FlightAware (Why Join?)
  • Login
  • US Flag 
10:21PM EDT


 

Airport Tracker/Info


-or-


 

Live Flight TrackerFlight Track Log ✈ N740P ✈ 03-May-2013 ✈ KFLG - KRQE

Flight Track Log - Related Links

Times and Time Zones

All times are in EDT time to prevent confusion due to time zone crossing. See the N740P flight status page for this flight to view local times or setup timezone preferences in your user account.

Time Position Orientation Groundspeed Altitude Reporting Facility
EDT Latitude Longitude Course Direction KTS MPH feet Rate Location/Type
04:12PM 35.1933 -111.5231 74° East 182 209 12,500  Level Albuquerque Center
04:13PM 35.2111 -111.4492 74° East 188 216 14,700 1,860 Climbing Albuquerque Center
04:14PM 35.2256 -111.3828 75° East 199 229 16,400 1,500 Climbing Albuquerque Center
04:15PM 35.2400 -111.3122 76° East 211 243 17,900 1,560 Climbing Albuquerque Center
04:16PM 35.2533 -111.2444 76° East 208 239 19,700 1,380 Climbing Albuquerque Center
04:17PM 35.2675 -111.1775 75° East 204 235 20,800 600 Climbing Albuquerque Center
04:18PM 35.2775 -111.0750 83° East 253 291 21,000 60 Climbing Albuquerque Center
04:19PM 35.2956 -110.9836 76° East 281 323 21,000  Level Albuquerque Center
04:20PM 35.3186 -110.8925 73° East 292 336 21,000  Level Albuquerque Center
04:21PM 35.3350 -110.7833 80° East 292 336 21,000  Level Albuquerque Center
04:22PM 35.3542 -110.6897 76° East 295 339 21,000  Level Albuquerque Center
04:23PM 35.3747 -110.5819 77° East 292 336 21,000  Level Albuquerque Center
04:24PM 35.3931 -110.4886 76° East 294 338 21,000 -420 Level Albuquerque Center
04:25PM 35.4133 -110.3758 78° East 301 346 20,200 -960 Descending Albuquerque Center
04:26PM 35.4317 -110.2733 78° East 315 362 19,100 -1,080 Descending Albuquerque Center
04:27PM 35.4522 -110.1706 76° East 323 372 18,000 -960 Descending Albuquerque Center
04:29PM 35.4756 -110.0519 76° East 322 371 17,200 -840 Descending Albuquerque Center
04:30PM 35.4944 -109.9525 77° East 317 365 16,400 -900 Descending Albuquerque Center
04:31PM 35.5161 -109.8378 77° East 312 359 15,400 -840 Descending Albuquerque Center
04:33PM 35.5533 -109.6281 78° East 305 351 13,800 -720 Descending Albuquerque Center
04:34PM 35.5714 -109.5333 77° East 301 346 13,300 -480 Descending Albuquerque Center
04:35PM 35.5889 -109.4419 77° East 295 339 12,900 -420 Descending Albuquerque Center